sensor_id;sensor_type;location;lat;lon;timestamp;P1;durP1;ratioP1;P2;durP2;ratioP2
69305;SDS011;56427;51.580;4.656;2022-09-02T00:01:28;4.50;;;1.57;;
69305;SDS011;56427;51.580;4.656;2022-09-02T00:03:58;4.80;;;1.42;;
69305;SDS011;56427;51.580;4.656;2022-09-02T00:06:27;3.10;;;1.40;;
69305;SDS011;56427;51.580;4.656;2022-09-02T00:08:53;3.73;;;1.70;;
69305;SDS011;56427;51.580;4.656;2022-09-02T00:11:20;4.45;;;1.48;;
69305;SDS011;56427;51.580;4.656;2022-09-02T00:13:47;3.55;;;1.40;;
69305;SDS011;56427;51.580;4.656;2022-09-02T00:16:14;4.82;;;1.60;;
69305;SDS011;56427;51.580;4.656;2022-09-02T00:18:41;3.73;;;1.80;;
69305;SDS011;56427;51.580;4.656;2022-09-02T00:21:06;4.25;;;1.48;;
69305;SDS011;56427;51.580;4.656;2022-09-02T00:23:32;4.80;;;1.50;;
69305;SDS011;56427;51.580;4.656;2022-09-02T00:25:58;4.10;;;1.30;;
69305;SDS011;56427;51.580;4.656;2022-09-02T00:28:24;5.57;;;1.50;;
69305;SDS011;56427;51.580;4.656;2022-09-02T00:30:49;4.83;;;1.70;;
69305;SDS011;56427;51.580;4.656;2022-09-02T00:33:15;6.30;;;1.50;;
69305;SDS011;56427;51.580;4.656;2022-09-02T00:35:41;4.93;;;1.50;;
69305;SDS011;56427;51.580;4.656;2022-09-02T00:38:06;7.40;;;1.60;;
69305;SDS011;56427;51.580;4.656;2022-09-02T00:40:34;4.13;;;1.58;;
69305;SDS011;56427;51.580;4.656;2022-09-02T00:43:00;5.03;;;1.70;;
69305;SDS011;56427;51.580;4.656;2022-09-02T00:45:28;3.00;;;1.33;;
69305;SDS011;56427;51.580;4.656;2022-09-02T00:47:54;5.43;;;1.60;;
69305;SDS011;56427;51.580;4.656;2022-09-02T00:50:23;4.47;;;1.60;;
69305;SDS011;56427;51.580;4.656;2022-09-02T00:52:54;4.18;;;1.50;;
69305;SDS011;56427;51.580;4.656;2022-09-02T00:55:24;4.88;;;1.60;;
69305;SDS011;56427;51.580;4.656;2022-09-02T00:57:53;3.40;;;1.63;;
69305;SDS011;56427;51.580;4.656;2022-09-02T01:00:24;4.72;;;1.50;;
69305;SDS011;56427;51.580;4.656;2022-09-02T01:02:54;4.43;;;1.80;;
69305;SDS011;56427;51.580;4.656;2022-09-02T01:05:28;4.13;;;1.70;;
69305;SDS011;56427;51.580;4.656;2022-09-02T01:07:58;5.13;;;2.10;;
69305;SDS011;56427;51.580;4.656;2022-09-02T01:10:25;6.47;;;2.03;;
69305;SDS011;56427;51.580;4.656;2022-09-02T01:12:57;5.95;;;1.92;;
69305;SDS011;56427;51.580;4.656;2022-09-02T01:15:25;6.00;;;2.17;;
69305;SDS011;56427;51.580;4.656;2022-09-02T01:17:51;5.87;;;2.37;;
69305;SDS011;56427;51.580;4.656;2022-09-02T01:20:19;7.07;;;2.30;;
69305;SDS011;56427;51.580;4.656;2022-09-02T01:22:47;4.95;;;2.45;;
69305;SDS011;56427;51.580;4.656;2022-09-02T01:25:16;5.57;;;2.10;;
69305;SDS011;56427;51.580;4.656;2022-09-02T01:27:44;9.48;;;2.35;;
69305;SDS011;56427;51.580;4.656;2022-09-02T01:30:12;6.63;;;2.50;;
69305;SDS011;56427;51.580;4.656;2022-09-02T01:32:41;5.97;;;2.47;;
69305;SDS011;56427;51.580;4.656;2022-09-02T01:35:06;6.07;;;2.63;;
69305;SDS011;56427;51.580;4.656;2022-09-02T01:37:32;6.65;;;2.60;;
69305;SDS011;56427;51.580;4.656;2022-09-02T01:39:59;8.63;;;2.80;;
69305;SDS011;56427;51.580;4.656;2022-09-02T01:42:24;9.13;;;2.93;;
69305;SDS011;56427;51.580;4.656;2022-09-02T01:44:50;8.88;;;2.92;;
69305;SDS011;56427;51.580;4.656;2022-09-02T01:47:17;6.13;;;2.70;;
69305;SDS011;56427;51.580;4.656;2022-09-02T01:49:45;8.40;;;2.75;;
69305;SDS011;56427;51.580;4.656;2022-09-02T01:52:10;6.03;;;2.45;;
69305;SDS011;56427;51.580;4.656;2022-09-02T01:54:36;7.57;;;2.87;;
69305;SDS011;56427;51.580;4.656;2022-09-02T01:57:03;8.05;;;2.67;;
69305;SDS011;56427;51.580;4.656;2022-09-02T01:59:28;11.97;;;2.87;;
69305;SDS011;56427;51.580;4.656;2022-09-02T02:01:54;7.95;;;2.22;;
69305;SDS011;56427;51.580;4.656;2022-09-02T02:04:19;4.77;;;2.20;;
69305;SDS011;56427;51.580;4.656;2022-09-02T02:06:48;5.70;;;2.58;;
69305;SDS011;56427;51.580;4.656;2022-09-02T02:09:14;5.27;;;2.10;;
69305;SDS011;56427;51.580;4.656;2022-09-02T02:11:41;6.93;;;2.30;;
69305;SDS011;56427;51.580;4.656;2022-09-02T02:14:07;5.05;;;2.20;;
69305;SDS011;56427;51.580;4.656;2022-09-02T02:16:33;5.22;;;2.38;;
69305;SDS011;56427;51.580;4.656;2022-09-02T02:18:59;7.00;;;2.70;;
69305;SDS011;56427;51.580;4.656;2022-09-02T02:21:24;4.20;;;2.43;;
69305;SDS011;56427;51.580;4.656;2022-09-02T02:23:50;6.05;;;2.20;;
69305;SDS011;56427;51.580;4.656;2022-09-02T02:26:15;7.93;;;2.27;;
69305;SDS011;56427;51.580;4.656;2022-09-02T02:28:41;4.80;;;2.40;;
69305;SDS011;56427;51.580;4.656;2022-09-02T02:31:10;6.22;;;2.45;;
69305;SDS011;56427;51.580;4.656;2022-09-02T02:33:35;5.68;;;2.40;;
69305;SDS011;56427;51.580;4.656;2022-09-02T02:36:06;7.10;;;2.58;;
69305;SDS011;56427;51.580;4.656;2022-09-02T02:38:32;5.90;;;2.70;;
69305;SDS011;56427;51.580;4.656;2022-09-02T02:41:00;4.68;;;2.40;;
69305;SDS011;56427;51.580;4.656;2022-09-02T02:43:32;10.45;;;2.50;;
69305;SDS011;56427;51.580;4.656;2022-09-02T02:45:58;5.53;;;2.80;;
69305;SDS011;56427;51.580;4.656;2022-09-02T02:48:24;6.57;;;2.63;;
69305;SDS011;56427;51.580;4.656;2022-09-02T02:50:50;7.88;;;2.75;;
69305;SDS011;56427;51.580;4.656;2022-09-02T02:53:16;8.40;;;2.67;;
69305;SDS011;56427;51.580;4.656;2022-09-02T02:55:42;5.27;;;2.97;;
69305;SDS011;56427;51.580;4.656;2022-09-02T02:58:09;6.88;;;2.65;;
69305;SDS011;56427;51.580;4.656;2022-09-02T03:00:34;6.30;;;2.80;;
69305;SDS011;56427;51.580;4.656;2022-09-02T03:03:02;10.43;;;3.07;;
69305;SDS011;56427;51.580;4.656;2022-09-02T03:05:30;7.50;;;3.20;;
69305;SDS011;56427;51.580;4.656;2022-09-02T03:07:57;6.00;;;2.92;;
69305;SDS011;56427;51.580;4.656;2022-09-02T03:10:23;7.07;;;2.65;;
69305;SDS011;56427;51.580;4.656;2022-09-02T03:12:50;7.32;;;2.63;;
69305;SDS011;56427;51.580;4.656;2022-09-02T03:15:16;7.67;;;2.63;;
69305;SDS011;56427;51.580;4.656;2022-09-02T03:17:43;6.00;;;2.95;;
69305;SDS011;56427;51.580;4.656;2022-09-02T03:20:09;6.10;;;2.50;;
69305;SDS011;56427;51.580;4.656;2022-09-02T03:22:35;7.05;;;3.30;;
69305;SDS011;56427;51.580;4.656;2022-09-02T03:25:03;8.70;;;3.15;;
69305;SDS011;56427;51.580;4.656;2022-09-02T03:27:30;6.87;;;2.97;;
69305;SDS011;56427;51.580;4.656;2022-09-02T03:29:55;8.03;;;3.00;;
69305;SDS011;56427;51.580;4.656;2022-09-02T03:32:20;9.00;;;3.27;;
69305;SDS011;56427;51.580;4.656;2022-09-02T03:34:46;7.63;;;3.30;;
69305;SDS011;56427;51.580;4.656;2022-09-02T03:37:11;7.10;;;3.27;;
69305;SDS011;56427;51.580;4.656;2022-09-02T03:39:37;11.57;;;3.00;;
69305;SDS011;56427;51.580;4.656;2022-09-02T03:42:03;8.32;;;3.40;;
69305;SDS011;56427;51.580;4.656;2022-09-02T03:44:29;10.63;;;3.45;;
69305;SDS011;56427;51.580;4.656;2022-09-02T03:46:54;10.50;;;3.27;;
69305;SDS011;56427;51.580;4.656;2022-09-02T03:49:19;5.73;;;2.90;;
69305;SDS011;56427;51.580;4.656;2022-09-02T03:51:44;9.37;;;3.17;;
69305;SDS011;56427;51.580;4.656;2022-09-02T03:54:10;7.53;;;3.23;;
69305;SDS011;56427;51.580;4.656;2022-09-02T03:56:36;6.47;;;3.17;;
69305;SDS011;56427;51.580;4.656;2022-09-02T03:59:01;5.55;;;3.08;;
69305;SDS011;56427;51.580;4.656;2022-09-02T04:01:27;6.03;;;3.07;;
69305;SDS011;56427;51.580;4.656;2022-09-02T04:03:53;7.47;;;3.22;;
69305;SDS011;56427;51.580;4.656;2022-09-02T04:06:19;6.57;;;2.90;;
69305;SDS011;56427;51.580;4.656;2022-09-02T04:08:46;7.18;;;3.10;;
69305;SDS011;56427;51.580;4.656;2022-09-02T04:11:13;6.40;;;3.75;;
69305;SDS011;56427;51.580;4.656;2022-09-02T04:13:42;14.13;;;3.13;;
69305;SDS011;56427;51.580;4.656;2022-09-02T04:16:10;10.67;;;3.23;;
69305;SDS011;56427;51.580;4.656;2022-09-02T04:18:38;6.32;;;3.40;;
69305;SDS011;56427;51.580;4.656;2022-09-02T04:21:04;6.45;;;3.30;;
69305;SDS011;56427;51.580;4.656;2022-09-02T04:23:30;11.07;;;3.55;;
69305;SDS011;56427;51.580;4.656;2022-09-02T04:25:56;8.27;;;3.73;;
69305;SDS011;56427;51.580;4.656;2022-09-02T04:28:22;6.35;;;3.50;;
69305;SDS011;56427;51.580;4.656;2022-09-02T04:30:48;9.27;;;3.47;;
69305;SDS011;56427;51.580;4.656;2022-09-02T04:33:13;8.30;;;4.27;;
69305;SDS011;56427;51.580;4.656;2022-09-02T04:35:41;10.25;;;4.00;;
69305;SDS011;56427;51.580;4.656;2022-09-02T04:38:08;12.80;;;4.50;;
69305;SDS011;56427;51.580;4.656;2022-09-02T04:40:34;13.77;;;4.30;;
69305;SDS011;56427;51.580;4.656;2022-09-02T04:43:00;11.27;;;3.55;;
69305;SDS011;56427;51.580;4.656;2022-09-02T04:45:25;9.43;;;4.33;;
69305;SDS011;56427;51.580;4.656;2022-09-02T04:47:51;10.50;;;4.15;;
69305;SDS011;56427;51.580;4.656;2022-09-02T04:50:16;10.13;;;4.17;;
69305;SDS011;56427;51.580;4.656;2022-09-02T04:52:42;8.93;;;3.87;;
69305;SDS011;56427;51.580;4.656;2022-09-02T04:55:08;7.88;;;3.40;;
69305;SDS011;56427;51.580;4.656;2022-09-02T04:57:34;11.17;;;4.33;;
69305;SDS011;56427;51.580;4.656;2022-09-02T05:00:01;10.43;;;3.63;;
69305;SDS011;56427;51.580;4.656;2022-09-02T05:02:29;8.30;;;3.88;;
69305;SDS011;56427;51.580;4.656;2022-09-02T05:04:54;11.57;;;4.47;;
69305;SDS011;56427;51.580;4.656;2022-09-02T05:07:20;10.40;;;3.87;;
69305;SDS011;56427;51.580;4.656;2022-09-02T05:09:45;10.93;;;4.10;;
69305;SDS011;56427;51.580;4.656;2022-09-02T05:12:10;10.53;;;4.53;;
69305;SDS011;56427;51.580;4.656;2022-09-02T05:14:35;10.40;;;4.30;;
69305;SDS011;56427;51.580;4.656;2022-09-02T05:17:01;9.85;;;3.88;;
69305;SDS011;56427;51.580;4.656;2022-09-02T05:19:26;10.37;;;3.90;;
69305;SDS011;56427;51.580;4.656;2022-09-02T05:21:52;11.90;;;4.30;;
69305;SDS011;56427;51.580;4.656;2022-09-02T05:24:20;12.80;;;4.38;;
69305;SDS011;56427;51.580;4.656;2022-09-02T05:26:45;9.93;;;4.20;;
69305;SDS011;56427;51.580;4.656;2022-09-02T05:29:10;11.33;;;3.93;;
69305;SDS011;56427;51.580;4.656;2022-09-02T05:31:37;16.17;;;4.60;;
69305;SDS011;56427;51.580;4.656;2022-09-02T05:34:02;11.93;;;4.80;;
69305;SDS011;56427;51.580;4.656;2022-09-02T05:36:28;14.68;;;4.68;;
69305;SDS011;56427;51.580;4.656;2022-09-02T05:38:56;13.15;;;4.68;;
69305;SDS011;56427;51.580;4.656;2022-09-02T05:41:22;13.63;;;4.68;;
69305;SDS011;56427;51.580;4.656;2022-09-02T05:43:49;11.63;;;4.80;;
69305;SDS011;56427;51.580;4.656;2022-09-02T05:46:16;13.73;;;4.97;;
69305;SDS011;56427;51.580;4.656;2022-09-02T05:48:44;16.25;;;4.82;;
69305;SDS011;56427;51.580;4.656;2022-09-02T05:51:29;17.13;;;5.53;;
69305;SDS011;56427;51.580;4.656;2022-09-02T05:53:57;17.92;;;5.80;;
69305;SDS011;56427;51.580;4.656;2022-09-02T05:56:24;12.70;;;4.63;;
69305;SDS011;56427;51.580;4.656;2022-09-02T05:58:51;23.40;;;5.25;;
69305;SDS011;56427;51.580;4.656;2022-09-02T06:01:19;17.77;;;5.13;;
69305;SDS011;56427;51.580;4.656;2022-09-02T06:03:44;15.77;;;5.00;;
69305;SDS011;56427;51.580;4.656;2022-09-02T06:06:10;13.00;;;5.20;;
69305;SDS011;56427;51.580;4.656;2022-09-02T06:08:36;21.73;;;5.10;;
69305;SDS011;56427;51.580;4.656;2022-09-02T06:11:02;23.53;;;5.20;;
69305;SDS011;56427;51.580;4.656;2022-09-02T06:13:29;26.83;;;5.10;;
69305;SDS011;56427;51.580;4.656;2022-09-02T06:15:56;23.83;;;5.35;;
69305;SDS011;56427;51.580;4.656;2022-09-02T06:18:22;23.88;;;5.10;;
69305;SDS011;56427;51.580;4.656;2022-09-02T06:20:48;17.45;;;5.32;;
69305;SDS011;56427;51.580;4.656;2022-09-02T06:23:14;18.33;;;5.67;;
69305;SDS011;56427;51.580;4.656;2022-09-02T06:25:40;14.60;;;5.45;;
69305;SDS011;56427;51.580;4.656;2022-09-02T06:28:07;18.45;;;6.20;;
69305;SDS011;56427;51.580;4.656;2022-09-02T06:30:33;16.00;;;5.83;;
69305;SDS011;56427;51.580;4.656;2022-09-02T06:32:59;10.02;;;5.30;;
69305;SDS011;56427;51.580;4.656;2022-09-02T06:35:29;12.80;;;5.30;;
69305;SDS011;56427;51.580;4.656;2022-09-02T06:37:56;15.05;;;5.57;;
69305;SDS011;56427;51.580;4.656;2022-09-02T06:40:22;10.20;;;5.18;;
69305;SDS011;56427;51.580;4.656;2022-09-02T06:42:47;13.53;;;5.57;;
69305;SDS011;56427;51.580;4.656;2022-09-02T06:45:14;9.80;;;5.35;;
69305;SDS011;56427;51.580;4.656;2022-09-02T06:47:39;16.00;;;5.43;;
69305;SDS011;56427;51.580;4.656;2022-09-02T06:50:05;14.67;;;8.27;;
69305;SDS011;56427;51.580;4.656;2022-09-02T06:52:31;20.33;;;10.73;;
69305;SDS011;56427;51.580;4.656;2022-09-02T06:54:56;11.53;;;5.40;;
69305;SDS011;56427;51.580;4.656;2022-09-02T06:57:21;11.20;;;5.00;;
69305;SDS011;56427;51.580;4.656;2022-09-02T06:59:46;8.53;;;5.50;;
69305;SDS011;56427;51.580;4.656;2022-09-02T07:02:12;12.10;;;5.83;;
69305;SDS011;56427;51.580;4.656;2022-09-02T07:04:39;13.00;;;5.45;;
69305;SDS011;56427;51.580;4.656;2022-09-02T07:07:23;13.32;;;5.50;;
69305;SDS011;56427;51.580;4.656;2022-09-02T07:09:49;14.82;;;6.15;;
69305;SDS011;56427;51.580;4.656;2022-09-02T07:12:15;9.30;;;4.90;;
69305;SDS011;56427;51.580;4.656;2022-09-02T07:14:41;8.45;;;5.30;;
69305;SDS011;56427;51.580;4.656;2022-09-02T07:17:08;11.80;;;5.00;;
69305;SDS011;56427;51.580;4.656;2022-09-02T07:19:35;11.73;;;6.00;;
69305;SDS011;56427;51.580;4.656;2022-09-02T07:22:04;11.53;;;4.90;;
69305;SDS011;56427;51.580;4.656;2022-09-02T07:24:30;13.35;;;6.50;;
69305;SDS011;56427;51.580;4.656;2022-09-02T07:26:55;10.90;;;5.40;;
69305;SDS011;56427;51.580;4.656;2022-09-02T07:29:21;10.60;;;5.00;;
69305;SDS011;56427;51.580;4.656;2022-09-02T07:31:47;9.15;;;4.47;;
69305;SDS011;56427;51.580;4.656;2022-09-02T07:34:13;9.48;;;4.30;;
69305;SDS011;56427;51.580;4.656;2022-09-02T07:36:39;7.43;;;4.53;;
69305;SDS011;56427;51.580;4.656;2022-09-02T07:39:07;13.03;;;4.43;;
69305;SDS011;56427;51.580;4.656;2022-09-02T07:41:34;11.98;;;4.82;;
69305;SDS011;56427;51.580;4.656;2022-09-02T07:44:00;11.48;;;4.90;;
69305;SDS011;56427;51.580;4.656;2022-09-02T07:46:26;16.23;;;4.22;;
69305;SDS011;56427;51.580;4.656;2022-09-02T07:48:55;11.07;;;4.57;;
69305;SDS011;56427;51.580;4.656;2022-09-02T07:51:21;10.17;;;4.50;;
69305;SDS011;56427;51.580;4.656;2022-09-02T07:53:47;11.85;;;4.28;;
69305;SDS011;56427;51.580;4.656;2022-09-02T07:56:12;11.07;;;4.87;;
69305;SDS011;56427;51.580;4.656;2022-09-02T07:58:40;9.52;;;4.32;;
69305;SDS011;56427;51.580;4.656;2022-09-02T08:01:07;10.57;;;3.95;;
69305;SDS011;56427;51.580;4.656;2022-09-02T08:03:33;8.05;;;4.22;;
69305;SDS011;56427;51.580;4.656;2022-09-02T08:05:58;7.47;;;4.10;;
69305;SDS011;56427;51.580;4.656;2022-09-02T08:08:24;7.97;;;4.63;;
69305;SDS011;56427;51.580;4.656;2022-09-02T08:10:52;9.73;;;4.28;;
69305;SDS011;56427;51.580;4.656;2022-09-02T08:13:18;13.98;;;7.13;;
69305;SDS011;56427;51.580;4.656;2022-09-02T08:15:46;9.63;;;5.10;;
69305;SDS011;56427;51.580;4.656;2022-09-02T08:18:12;13.25;;;4.13;;
69305;SDS011;56427;51.580;4.656;2022-09-02T08:20:37;7.83;;;4.17;;
69305;SDS011;56427;51.580;4.656;2022-09-02T08:23:05;18.52;;;9.70;;
69305;SDS011;56427;51.580;4.656;2022-09-02T08:25:32;9.57;;;5.00;;
69305;SDS011;56427;51.580;4.656;2022-09-02T08:27:59;8.05;;;3.80;;
69305;SDS011;56427;51.580;4.656;2022-09-02T08:30:25;7.07;;;3.78;;
69305;SDS011;56427;51.580;4.656;2022-09-02T08:32:50;10.40;;;3.85;;
69305;SDS011;56427;51.580;4.656;2022-09-02T08:35:17;7.87;;;4.00;;
69305;SDS011;56427;51.580;4.656;2022-09-02T08:37:42;8.40;;;3.92;;
69305;SDS011;56427;51.580;4.656;2022-09-02T08:40:12;11.63;;;4.20;;
69305;SDS011;56427;51.580;4.656;2022-09-02T08:42:49;9.73;;;4.40;;
69305;SDS011;56427;51.580;4.656;2022-09-02T08:45:23;13.30;;;4.97;;
69305;SDS011;56427;51.580;4.656;2022-09-02T08:48:13;11.33;;;4.53;;
69305;SDS011;56427;51.580;4.656;2022-09-02T08:50:48;15.40;;;6.93;;
69305;SDS011;56427;51.580;4.656;2022-09-02T08:53:24;10.07;;;5.55;;
69305;SDS011;56427;51.580;4.656;2022-09-02T08:56:00;11.95;;;5.43;;
69305;SDS011;56427;51.580;4.656;2022-09-02T08:58:32;12.25;;;4.60;;
69305;SDS011;56427;51.580;4.656;2022-09-02T09:04:11;22.70;;;7.43;;
69305;SDS011;56427;51.580;4.656;2022-09-02T09:12:20;9.48;;;4.60;;
69305;SDS011;56427;51.580;4.656;2022-09-02T09:17:59;8.98;;;4.68;;
69305;SDS011;56427;51.580;4.656;2022-09-02T09:20:28;11.90;;;4.75;;
69305;SDS011;56427;51.580;4.656;2022-09-02T09:22:57;10.07;;;4.45;;
69305;SDS011;56427;51.580;4.656;2022-09-02T09:25:25;10.32;;;4.57;;
69305;SDS011;56427;51.580;4.656;2022-09-02T09:27:54;11.30;;;4.90;;
69305;SDS011;56427;51.580;4.656;2022-09-02T09:30:21;12.48;;;4.95;;
69305;SDS011;56427;51.580;4.656;2022-09-02T09:32:57;11.98;;;7.28;;
69305;SDS011;56427;51.580;4.656;2022-09-02T09:35:24;7.82;;;4.78;;
69305;SDS011;56427;51.580;4.656;2022-09-02T09:37:54;12.52;;;6.78;;
69305;SDS011;56427;51.580;4.656;2022-09-02T09:45:37;6.65;;;3.90;;
69305;SDS011;56427;51.580;4.656;2022-09-02T09:53:20;8.50;;;3.97;;
69305;SDS011;56427;51.580;4.656;2022-09-02T09:55:55;10.00;;;4.38;;
69305;SDS011;56427;51.580;4.656;2022-09-02T09:58:23;10.43;;;3.95;;
69305;SDS011;56427;51.580;4.656;2022-09-02T10:00:54;17.48;;;4.13;;
69305;SDS011;56427;51.580;4.656;2022-09-02T10:03:26;8.88;;;3.83;;
69305;SDS011;56427;51.580;4.656;2022-09-02T10:05:54;14.17;;;3.93;;
69305;SDS011;56427;51.580;4.656;2022-09-02T10:08:24;8.50;;;3.63;;
69305;SDS011;56427;51.580;4.656;2022-09-02T10:11:01;7.75;;;3.42;;
69305;SDS011;56427;51.580;4.656;2022-09-02T10:13:30;6.07;;;3.72;;
69305;SDS011;56427;51.580;4.656;2022-09-02T10:18:55;8.90;;;3.33;;
69305;SDS011;56427;51.580;4.656;2022-09-02T10:21:47;12.57;;;3.17;;
69305;SDS011;56427;51.580;4.656;2022-09-02T10:27:14;7.63;;;2.75;;
69305;SDS011;56427;51.580;4.656;2022-09-02T10:29:52;6.85;;;3.03;;
69305;SDS011;56427;51.580;4.656;2022-09-02T10:35:08;10.00;;;3.60;;
69305;SDS011;56427;51.580;4.656;2022-09-02T10:46:20;4.57;;;3.03;;
69305;SDS011;56427;51.580;4.656;2022-09-02T10:54:19;7.13;;;2.90;;
69305;SDS011;56427;51.580;4.656;2022-09-02T10:56:54;7.65;;;2.60;;
69305;SDS011;56427;51.580;4.656;2022-09-02T10:59:29;5.00;;;2.50;;
69305;SDS011;56427;51.580;4.656;2022-09-02T11:02:11;7.15;;;2.63;;
69305;SDS011;56427;51.580;4.656;2022-09-02T11:04:45;8.52;;;2.55;;
69305;SDS011;56427;51.580;4.656;2022-09-02T11:07:15;5.38;;;2.13;;
69305;SDS011;56427;51.580;4.656;2022-09-02T11:10:07;4.70;;;2.15;;
69305;SDS011;56427;51.580;4.656;2022-09-02T11:12:51;4.37;;;2.00;;
69305;SDS011;56427;51.580;4.656;2022-09-02T11:18:24;6.25;;;2.50;;
69305;SDS011;56427;51.580;4.656;2022-09-02T11:23:56;6.35;;;2.63;;
69305;SDS011;56427;51.580;4.656;2022-09-02T11:32:22;7.57;;;2.25;;
69305;SDS011;56427;51.580;4.656;2022-09-02T11:34:54;7.28;;;2.33;;
69305;SDS011;56427;51.580;4.656;2022-09-02T11:39:52;6.03;;;2.07;;
69305;SDS011;56427;51.580;4.656;2022-09-02T11:53:25;4.93;;;2.13;;
69305;SDS011;56427;51.580;4.656;2022-09-02T11:56:00;6.38;;;2.33;;
69305;SDS011;56427;51.580;4.656;2022-09-02T12:04:22;6.88;;;2.00;;
69305;SDS011;56427;51.580;4.656;2022-09-02T12:06:30;6.83;;;2.00;;
69305;SDS011;56427;51.580;4.656;2022-09-02T12:08:58;5.78;;;2.10;;
69305;SDS011;56427;51.580;4.656;2022-09-02T12:11:34;9.35;;;2.28;;
69305;SDS011;56427;51.580;4.656;2022-09-02T12:17:04;6.88;;;2.95;;
69305;SDS011;56427;51.580;4.656;2022-09-02T12:24:49;3.72;;;1.77;;
69305;SDS011;56427;51.580;4.656;2022-09-02T12:27:21;4.18;;;1.95;;
69305;SDS011;56427;51.580;4.656;2022-09-02T12:29:50;5.43;;;1.83;;
69305;SDS011;56427;51.580;4.656;2022-09-02T12:33:00;4.17;;;1.70;;
69305;SDS011;56427;51.580;4.656;2022-09-02T12:35:34;6.15;;;1.88;;
69305;SDS011;56427;51.580;4.656;2022-09-02T12:40:38;7.18;;;2.08;;
69305;SDS011;56427;51.580;4.656;2022-09-02T12:43:14;4.55;;;2.00;;
69305;SDS011;56427;51.580;4.656;2022-09-02T12:45:50;4.30;;;1.60;;
69305;SDS011;56427;51.580;4.656;2022-09-02T12:48:21;4.80;;;1.90;;
69305;SDS011;56427;51.580;4.656;2022-09-02T12:53:24;5.07;;;1.80;;
69305;SDS011;56427;51.580;4.656;2022-09-02T12:56:03;4.75;;;1.80;;
69305;SDS011;56427;51.580;4.656;2022-09-02T12:58:43;6.07;;;2.53;;
69305;SDS011;56427;51.580;4.656;2022-09-02T13:01:12;4.32;;;1.88;;
69305;SDS011;56427;51.580;4.656;2022-09-02T13:26:56;6.70;;;1.98;;
69305;SDS011;56427;51.580;4.656;2022-09-02T13:29:04;5.03;;;2.20;;
69305;SDS011;56427;51.580;4.656;2022-09-02T13:34:33;9.02;;;2.35;;
69305;SDS011;56427;51.580;4.656;2022-09-02T13:37:06;8.88;;;2.55;;
69305;SDS011;56427;51.580;4.656;2022-09-02T13:39:51;7.20;;;2.15;;
69305;SDS011;56427;51.580;4.656;2022-09-02T13:42:16;9.23;;;1.90;;
69305;SDS011;56427;51.580;4.656;2022-09-02T13:44:47;4.18;;;1.90;;
69305;SDS011;56427;51.580;4.656;2022-09-02T13:47:13;4.97;;;2.00;;
69305;SDS011;56427;51.580;4.656;2022-09-02T13:49:45;7.30;;;2.13;;
69305;SDS011;56427;51.580;4.656;2022-09-02T13:52:14;6.00;;;1.85;;
69305;SDS011;56427;51.580;4.656;2022-09-02T13:54:53;5.03;;;2.40;;
69305;SDS011;56427;51.580;4.656;2022-09-02T13:57:22;3.67;;;2.17;;
69305;SDS011;56427;51.580;4.656;2022-09-02T13:59:52;11.68;;;1.90;;
69305;SDS011;56427;51.580;4.656;2022-09-02T14:05:14;6.72;;;1.80;;
69305;SDS011;56427;51.580;4.656;2022-09-02T14:07:45;3.15;;;1.88;;
69305;SDS011;56427;51.580;4.656;2022-09-02T14:10:17;4.47;;;1.70;;
69305;SDS011;56427;51.580;4.656;2022-09-02T14:12:46;4.82;;;1.88;;
69305;SDS011;56427;51.580;4.656;2022-09-02T14:15:13;5.60;;;2.00;;
69305;SDS011;56427;51.580;4.656;2022-09-02T14:17:40;3.63;;;2.00;;
69305;SDS011;56427;51.580;4.656;2022-09-02T14:20:20;4.88;;;2.05;;
69305;SDS011;56427;51.580;4.656;2022-09-02T14:22:53;5.40;;;2.00;;
69305;SDS011;56427;51.580;4.656;2022-09-02T14:25:20;3.17;;;1.85;;
69305;SDS011;56427;51.580;4.656;2022-09-02T14:27:47;6.25;;;1.90;;
69305;SDS011;56427;51.580;4.656;2022-09-02T14:30:40;5.35;;;1.80;;
69305;SDS011;56427;51.580;4.656;2022-09-02T14:38:51;5.10;;;1.80;;
69305;SDS011;56427;51.580;4.656;2022-09-02T14:41:21;8.20;;;2.03;;
69305;SDS011;56427;51.580;4.656;2022-09-02T14:43:55;4.40;;;1.90;;
69305;SDS011;56427;51.580;4.656;2022-09-02T14:51:35;6.53;;;1.90;;
69305;SDS011;56427;51.580;4.656;2022-09-02T14:54:03;5.60;;;1.52;;
69305;SDS011;56427;51.580;4.656;2022-09-02T14:56:46;7.50;;;1.92;;
69305;SDS011;56427;51.580;4.656;2022-09-02T14:59:16;6.93;;;2.08;;
69305;SDS011;56427;51.580;4.656;2022-09-02T15:01:43;6.43;;;2.00;;
69305;SDS011;56427;51.580;4.656;2022-09-02T15:04:11;6.65;;;2.00;;
69305;SDS011;56427;51.580;4.656;2022-09-02T15:06:39;11.02;;;4.75;;
69305;SDS011;56427;51.580;4.656;2022-09-02T15:09:04;5.13;;;2.05;;
69305;SDS011;56427;51.580;4.656;2022-09-02T15:11:30;4.23;;;1.70;;
69305;SDS011;56427;51.580;4.656;2022-09-02T15:13:55;5.53;;;1.83;;
69305;SDS011;56427;51.580;4.656;2022-09-02T15:16:20;8.70;;;2.07;;
69305;SDS011;56427;51.580;4.656;2022-09-02T15:18:46;5.43;;;1.87;;
69305;SDS011;56427;51.580;4.656;2022-09-02T15:21:11;5.03;;;1.63;;
69305;SDS011;56427;51.580;4.656;2022-09-02T15:23:36;7.97;;;2.10;;
69305;SDS011;56427;51.580;4.656;2022-09-02T15:26:05;3.05;;;1.63;;
69305;SDS011;56427;51.580;4.656;2022-09-02T15:28:30;4.00;;;1.98;;
69305;SDS011;56427;51.580;4.656;2022-09-02T15:30:57;3.90;;;1.63;;
69305;SDS011;56427;51.580;4.656;2022-09-02T15:33:23;5.03;;;1.90;;
69305;SDS011;56427;51.580;4.656;2022-09-02T15:35:49;2.83;;;1.60;;
69305;SDS011;56427;51.580;4.656;2022-09-02T15:38:14;3.23;;;1.73;;
69305;SDS011;56427;51.580;4.656;2022-09-02T15:40:41;5.28;;;2.00;;
69305;SDS011;56427;51.580;4.656;2022-09-02T15:43:08;5.75;;;1.60;;
69305;SDS011;56427;51.580;4.656;2022-09-02T15:45:37;4.97;;;1.73;;
69305;SDS011;56427;51.580;4.656;2022-09-02T15:48:13;4.53;;;2.08;;
69305;SDS011;56427;51.580;4.656;2022-09-02T15:50:39;5.72;;;1.90;;
69305;SDS011;56427;51.580;4.656;2022-09-02T15:53:05;3.57;;;1.80;;
69305;SDS011;56427;51.580;4.656;2022-09-02T15:55:31;4.95;;;1.88;;
69305;SDS011;56427;51.580;4.656;2022-09-02T15:57:57;5.53;;;1.75;;
69305;SDS011;56427;51.580;4.656;2022-09-02T16:00:23;3.50;;;1.60;;
69305;SDS011;56427;51.580;4.656;2022-09-02T16:02:53;4.97;;;1.83;;
69305;SDS011;56427;51.580;4.656;2022-09-02T16:05:19;9.57;;;2.03;;
69305;SDS011;56427;51.580;4.656;2022-09-02T16:07:45;6.60;;;2.23;;
69305;SDS011;56427;51.580;4.656;2022-09-02T16:10:10;7.38;;;2.00;;
69305;SDS011;56427;51.580;4.656;2022-09-02T16:12:36;5.33;;;2.10;;
69305;SDS011;56427;51.580;4.656;2022-09-02T16:15:01;6.17;;;2.07;;
69305;SDS011;56427;51.580;4.656;2022-09-02T16:17:26;7.73;;;2.10;;
69305;SDS011;56427;51.580;4.656;2022-09-02T16:19:52;11.13;;;5.53;;
69305;SDS011;56427;51.580;4.656;2022-09-02T16:22:18;7.35;;;4.28;;
69305;SDS011;56427;51.580;4.656;2022-09-02T16:24:43;5.73;;;2.20;;
69305;SDS011;56427;51.580;4.656;2022-09-02T16:27:09;6.10;;;1.97;;
69305;SDS011;56427;51.580;4.656;2022-09-02T16:29:34;5.13;;;2.00;;
69305;SDS011;56427;51.580;4.656;2022-09-02T16:32:01;6.23;;;1.90;;
69305;SDS011;56427;51.580;4.656;2022-09-02T16:34:27;8.65;;;2.10;;
69305;SDS011;56427;51.580;4.656;2022-09-02T16:36:53;10.77;;;2.10;;
69305;SDS011;56427;51.580;4.656;2022-09-02T16:39:19;3.95;;;1.60;;
69305;SDS011;56427;51.580;4.656;2022-09-02T16:41:46;4.32;;;1.90;;
69305;SDS011;56427;51.580;4.656;2022-09-02T16:44:15;5.50;;;1.97;;
69305;SDS011;56427;51.580;4.656;2022-09-02T16:46:42;4.10;;;1.60;;
69305;SDS011;56427;51.580;4.656;2022-09-02T16:49:09;9.80;;;2.10;;
69305;SDS011;56427;51.580;4.656;2022-09-02T16:51:37;7.07;;;2.00;;
69305;SDS011;56427;51.580;4.656;2022-09-02T16:54:05;6.43;;;2.22;;
69305;SDS011;56427;51.580;4.656;2022-09-02T16:56:31;5.90;;;2.13;;
69305;SDS011;56427;51.580;4.656;2022-09-02T16:59:01;8.90;;;4.15;;